Mountain Village, Alaska
Current Conditions -  °F | °C
As of 9:56 PM on Monday 20 Oct 2014 (Local Time) from PAMO Reporting Station
Haze Haze  
Wind Chill: -8°   Ceiling: 1000
Heat Index: -2°   Visibility: 4mi
Dew Point: -3°   Wind: 16mph
Humidity: 92%   Direction: 340°NNW
Pressure: 29.27"   Gusts: NA
Location:  62.09°N, 163.73°W
Report Text: PAMO 210556Z AUTO 34014KT 4SM UP BR BKN010 BKN014 BKN027 M02/M03 A2927 RMK AO2 TSNO 51006 60000 T10161027 11011 21016 CIG 008V012 UPB41SNE11 P0000 SLP798 $
Loading
Personal Weather Stations






























Interactive Weather Map
Tropical Storm Tracking
New forecast layout! Learn more

10-Day Weather Forecast

Advertisements
Track Severe Weather on mobile